La Conchita, California
Current Conditions -  °F | °C
As of 12:51 AM on Monday 20 Oct 2014 (Local Time) from KOXR Reporting Station
Broken Clouds Broken Clouds  
Wind Chill: 64°   Ceiling: 1300
Heat Index: 64°   Visibility: 9mi
Dew Point: 60°   Wind: 0mph
Humidity: 87%   Direction: NA
Pressure: 29.88"   Gusts: NA
Location:  34.3488°N, 119.33°W
Report Text: KOXR 200751Z AUTO 00000KT 9SM BKN013 18/16 A2988 RMK AO2 SLP117 T01780156 402280139
Loading
Personal Weather Stations






























Interactive Weather Map
Tropical Storm Tracking
New forecast layout! Learn more

10-Day Weather Forecast

Advertisements
Track Severe Weather on mobile